createdAt,value
2018-05-23T00:02:00.232Z,7.30
2018-05-23T00:04:26.255Z,7.00
2018-05-23T00:06:52.610Z,6.57
2018-05-23T00:09:18.642Z,7.70
2018-05-23T00:11:44.769Z,7.30
2018-05-23T00:14:10.770Z,7.90
2018-05-23T00:16:37.536Z,6.97
2018-05-23T00:19:03.635Z,8.27
2018-05-23T00:21:29.762Z,7.77
2018-05-23T00:23:55.786Z,7.57
2018-05-23T00:26:21.808Z,8.43
2018-05-23T00:28:47.814Z,7.20
2018-05-23T00:31:13.808Z,7.00
2018-05-23T00:33:39.837Z,8.77
2018-05-23T00:36:06.104Z,8.30
2018-05-23T00:38:32.106Z,9.10
2018-05-23T00:40:58.134Z,9.07
2018-05-23T00:43:24.156Z,8.73
2018-05-23T00:45:50.559Z,8.87
2018-05-23T00:48:16.591Z,8.53
2018-05-23T00:50:42.680Z,8.40
2018-05-23T00:53:08.754Z,8.20
2018-05-23T00:55:34.761Z,9.17
2018-05-23T00:58:00.783Z,8.10
2018-05-23T01:00:26.874Z,9.17
2018-05-23T01:02:52.975Z,9.53
2018-05-23T01:05:18.989Z,8.93
2018-05-23T01:07:45.022Z,8.13
2018-05-23T01:10:11.070Z,8.57
2018-05-23T01:12:37.111Z,8.97
2018-05-23T01:15:03.134Z,8.60
2018-05-23T01:17:29.227Z,8.50
2018-05-23T01:19:55.385Z,9.10
2018-05-23T01:22:21.439Z,8.83
2018-05-23T01:24:47.462Z,8.90
2018-05-23T01:27:13.502Z,9.17
2018-05-23T01:29:39.587Z,9.50
2018-05-23T01:32:05.615Z,9.13
2018-05-23T01:34:31.628Z,9.30
2018-05-23T01:36:57.665Z,9.00
2018-05-23T01:39:23.737Z,8.90
2018-05-23T01:41:49.747Z,10.30
2018-05-23T01:44:15.801Z,9.87
2018-05-23T01:46:41.815Z,10.10
2018-05-23T01:49:19.971Z,10.87
2018-05-23T01:51:46.007Z,11.00
2018-05-23T01:54:12.034Z,10.90
2018-05-23T01:56:38.107Z,12.70
2018-05-23T01:59:04.129Z,12.10
2018-05-23T02:01:30.135Z,11.83
2018-05-23T02:03:56.238Z,13.50
2018-05-23T02:06:22.258Z,13.60
2018-05-23T02:08:48.450Z,12.93
2018-05-23T02:11:14.504Z,13.30
2018-05-23T02:13:40.589Z,13.07
2018-05-23T02:16:06.662Z,13.57
2018-05-23T02:18:32.716Z,13.97
2018-05-23T02:20:59.405Z,13.70
2018-05-23T02:23:25.414Z,14.70
2018-05-23T02:25:51.454Z,14.27
2018-05-23T02:28:17.578Z,14.27
2018-05-23T02:30:43.617Z,14.17
2018-05-23T02:33:09.645Z,15.17
2018-05-23T02:35:35.660Z,14.97
2018-05-23T02:38:01.672Z,15.27
2018-05-23T02:40:27.706Z,16.47
2018-05-23T02:42:53.741Z,15.37
2018-05-23T02:45:19.830Z,14.37
2018-05-23T02:47:45.859Z,14.73
2018-05-23T02:50:11.903Z,14.67
2018-05-23T02:52:37.951Z,15.77
2018-05-23T02:55:03.991Z,16.37
2018-05-23T02:57:30.039Z,15.17
2018-05-23T02:59:56.101Z,15.77
2018-05-23T03:02:22.159Z,14.73
2018-05-23T03:04:48.184Z,13.87
2018-05-23T03:07:14.217Z,12.70
2018-05-23T03:09:40.262Z,14.83
2018-05-23T03:12:06.281Z,15.20
2018-05-23T03:14:32.298Z,16.67
2018-05-23T03:16:58.346Z,16.77
2018-05-23T03:19:24.452Z,15.37
2018-05-23T03:21:50.474Z,16.57
2018-05-23T03:24:16.502Z,16.80
2018-05-23T03:26:42.566Z,16.93
2018-05-23T03:29:08.688Z,18.10
2018-05-23T03:31:34.706Z,17.20
2018-05-23T03:34:00.764Z,15.90
2018-05-23T03:36:27.129Z,18.37
2018-05-23T03:38:53.212Z,17.93
2018-05-23T03:41:19.311Z,18.97
2018-05-23T03:43:45.325Z,17.77
2018-05-23T03:46:11.325Z,18.00
2018-05-23T03:48:38.023Z,17.03
2018-05-23T03:51:04.050Z,18.03
2018-05-23T03:53:30.104Z,17.53
2018-05-23T03:55:56.151Z,16.30
2018-05-23T03:58:22.177Z,14.67
2018-05-23T04:03:59.965Z,17.50
2018-05-23T04:06:27.689Z,16.30
2018-05-23T04:08:53.725Z,16.27
2018-05-23T04:11:19.776Z,19.13
2018-05-23T04:13:45.789Z,17.77
2018-05-23T04:16:11.831Z,18.43
2018-05-23T04:18:37.877Z,17.97
2018-05-23T04:21:03.942Z,16.87
2018-05-23T04:23:29.968Z,17.30
2018-05-23T04:25:56.020Z,18.87
2018-05-23T04:28:22.073Z,21.47
2018-05-23T04:30:48.142Z,19.90
2018-05-23T04:33:14.176Z,22.73
2018-05-23T04:35:40.224Z,20.80
2018-05-23T04:38:06.253Z,20.63
2018-05-23T04:40:32.366Z,23.47
2018-05-23T04:42:58.421Z,21.10
2018-05-23T04:45:24.450Z,23.27
2018-05-23T04:47:50.494Z,21.57
2018-05-23T04:50:16.563Z,23.63
2018-05-23T04:52:42.692Z,24.13
2018-05-23T04:55:08.725Z,22.77
2018-05-23T04:57:34.755Z,20.90
2018-05-23T05:00:00.985Z,22.20
2018-05-23T05:02:27.545Z,22.37
2018-05-23T05:04:53.613Z,21.20
2018-05-23T05:07:19.684Z,26.10
2018-05-23T05:09:45.708Z,23.17
2018-05-23T05:12:11.762Z,22.43
2018-05-23T05:14:37.848Z,21.47
2018-05-23T05:17:03.890Z,24.40
2018-05-23T05:19:29.945Z,22.57
2018-05-23T05:21:56.350Z,26.67
2018-05-23T05:24:22.437Z,23.23
2018-05-23T05:26:48.503Z,24.93
2018-05-23T05:29:14.543Z,27.67
2018-05-23T05:31:40.731Z,25.60
2018-05-23T05:34:07.211Z,32.30
2018-05-23T05:36:33.292Z,32.13
2018-05-23T05:38:59.413Z,28.60
2018-05-23T05:41:25.431Z,35.70
2018-05-23T05:43:51.494Z,31.63
2018-05-23T05:46:17.602Z,33.27
2018-05-23T05:48:43.605Z,34.40
2018-05-23T05:51:09.698Z,31.40
2018-05-23T05:53:35.820Z,31.60
2018-05-23T05:56:01.787Z,31.47
2018-05-23T05:58:28.280Z,32.97
2018-05-23T06:00:54.281Z,30.80
2018-05-23T06:03:20.309Z,32.40
2018-05-23T06:05:46.390Z,29.10
2018-05-23T06:08:12.397Z,32.37
2018-05-23T06:10:38.457Z,32.00
2018-05-23T06:13:04.606Z,31.43
2018-05-23T06:15:30.648Z,34.37
2018-05-23T06:17:57.287Z,32.73
2018-05-23T06:20:23.348Z,29.20
2018-05-23T06:22:49.361Z,30.47
2018-05-23T06:25:15.481Z,30.93
2018-05-23T06:27:41.574Z,30.80
2018-05-23T06:30:07.623Z,26.20
2018-05-23T06:32:33.645Z,32.57
2018-05-23T06:34:59.686Z,30.97
2018-05-23T06:37:25.721Z,29.53
2018-05-23T06:39:51.722Z,29.27
2018-05-23T06:42:17.717Z,29.03
2018-05-23T06:44:43.740Z,29.40
2018-05-23T06:47:09.764Z,28.00
2018-05-23T06:49:35.794Z,27.03
2018-05-23T06:52:01.810Z,31.03
2018-05-23T06:54:27.831Z,30.37
2018-05-23T06:56:53.905Z,31.23
2018-05-23T06:59:19.945Z,30.87
2018-05-23T07:01:45.955Z,33.47
2018-05-23T07:04:12.005Z,29.13
2018-05-23T07:06:38.031Z,36.20
2018-05-23T07:09:05.025Z,36.27
2018-05-23T07:11:31.116Z,36.10
2018-05-23T07:13:57.164Z,38.57
2018-05-23T07:16:23.265Z,37.27
2018-05-23T07:18:49.309Z,38.77
2018-05-23T07:21:15.393Z,40.13
2018-05-23T07:23:41.579Z,37.80
2018-05-23T07:26:07.648Z,38.67
2018-05-23T07:28:33.706Z,34.93
2018-05-23T07:30:59.753Z,35.03
2018-05-23T07:33:25.804Z,35.53
2018-05-23T07:35:51.863Z,34.93
2018-05-23T07:38:17.900Z,33.73
2018-05-23T07:40:43.934Z,33.50
2018-05-23T07:43:09.983Z,32.43
2018-05-23T07:45:36.026Z,37.67
2018-05-23T07:48:02.051Z,36.80
2018-05-23T07:50:28.682Z,35.40
2018-05-23T07:52:54.807Z,35.07
2018-05-23T07:55:21.347Z,36.20
2018-05-23T07:57:47.422Z,37.50
2018-05-23T08:00:13.450Z,37.90
2018-05-23T08:02:39.546Z,34.50
2018-05-23T08:05:05.707Z,35.23
2018-05-23T08:07:31.751Z,38.00
2018-05-23T08:09:57.821Z,39.40
2018-05-23T08:12:23.878Z,37.33
2018-05-23T08:14:49.952Z,36.40
2018-05-23T08:17:16.018Z,37.23
2018-05-23T08:19:42.068Z,37.53
2018-05-23T08:22:08.084Z,35.93
2018-05-23T08:24:34.115Z,35.57
2018-05-23T08:27:00.232Z,32.10
2018-05-23T08:29:26.333Z,32.73
2018-05-23T08:31:52.369Z,25.13
2018-05-23T08:34:18.452Z,26.77
2018-05-23T08:36:44.858Z,29.03
2018-05-23T08:39:10.936Z,29.33
2018-05-23T08:41:36.996Z,26.57
2018-05-23T08:44:03.243Z,27.07
2018-05-23T08:46:29.340Z,22.13
2018-05-23T08:48:55.361Z,25.20
2018-05-23T08:51:21.548Z,24.97
2018-05-23T08:53:47.680Z,23.70
2018-05-23T08:56:13.734Z,27.73
2018-05-23T08:58:39.783Z,21.13
2018-05-23T09:01:05.850Z,21.63
2018-05-23T09:03:31.898Z,18.80
2018-05-23T09:05:58.006Z,19.23
2018-05-23T09:08:24.084Z,19.83
2018-05-23T09:10:50.142Z,19.23
2018-05-23T09:13:16.169Z,18.43
2018-05-23T09:15:42.182Z,19.70
2018-05-23T09:18:08.194Z,19.27
2018-05-23T09:20:34.257Z,18.77
2018-05-23T09:23:00.254Z,17.97
2018-05-23T09:25:26.393Z,16.87
2018-05-23T09:27:52.370Z,18.57
2018-05-23T09:30:18.447Z,18.00
2018-05-23T09:32:44.476Z,18.87
2018-05-23T09:35:10.524Z,18.43
2018-05-23T09:37:36.557Z,15.73
2018-05-23T09:40:03.243Z,16.30
2018-05-23T09:42:29.406Z,15.40
2018-05-23T09:44:55.435Z,16.83
2018-05-23T09:47:21.456Z,15.70
2018-05-23T09:49:48.458Z,16.60
2018-05-23T09:52:14.533Z,14.60
2018-05-23T09:54:40.553Z,15.50
2018-05-23T09:57:06.664Z,15.30
2018-05-23T09:59:32.733Z,15.17
2018-05-23T10:01:58.779Z,15.47
2018-05-23T10:04:24.805Z,16.77
2018-05-23T10:06:51.002Z,16.87
2018-05-23T10:09:17.087Z,16.67
2018-05-23T10:11:43.215Z,15.60
2018-05-23T10:14:09.255Z,16.23
2018-05-23T10:16:35.271Z,17.50
2018-05-23T10:19:01.374Z,17.40
2018-05-23T10:21:27.498Z,15.97
2018-05-23T10:23:53.604Z,17.40
2018-05-23T10:26:19.726Z,16.70
2018-05-23T10:28:45.729Z,17.27
2018-05-23T10:31:11.796Z,17.77
2018-05-23T10:33:37.910Z,18.00
2018-05-23T10:36:03.919Z,18.70
2018-05-23T10:38:29.961Z,19.03
2018-05-23T10:40:56.012Z,19.67
2018-05-23T10:43:22.087Z,18.33
2018-05-23T10:45:48.134Z,17.90
2018-05-23T10:48:14.166Z,18.50
2018-05-23T10:50:40.227Z,19.73
2018-05-23T10:53:06.322Z,18.23
2018-05-23T10:55:32.405Z,19.33
2018-05-23T10:57:58.495Z,19.83
2018-05-23T11:00:24.582Z,19.83
2018-05-23T11:02:50.694Z,20.67
2018-05-23T11:05:16.703Z,21.40
2018-05-23T11:07:42.847Z,21.80
2018-05-23T11:10:08.898Z,22.00
2018-05-23T11:12:34.913Z,22.37
2018-05-23T11:15:01.092Z,21.50
2018-05-23T11:17:27.183Z,23.60
2018-05-23T11:19:53.278Z,22.60
2018-05-23T11:22:19.298Z,21.80
2018-05-23T11:24:45.373Z,22.50
2018-05-23T11:27:11.539Z,24.13
2018-05-23T11:29:37.620Z,23.20
2018-05-23T11:32:03.685Z,24.53
2018-05-23T11:34:29.717Z,23.67
2018-05-23T11:36:55.845Z,25.03
2018-05-23T11:39:21.889Z,24.50
2018-05-23T11:41:47.895Z,22.97
2018-05-23T11:44:13.922Z,20.67
2018-05-23T11:46:39.970Z,19.27
2018-05-23T11:49:05.959Z,18.83
2018-05-23T11:51:32.031Z,18.20
2018-05-23T11:53:58.085Z,17.70
2018-05-23T11:56:24.110Z,19.50
2018-05-23T11:58:50.266Z,17.60
2018-05-23T12:01:16.293Z,17.70
2018-05-23T12:03:42.303Z,16.53
2018-05-23T12:06:08.331Z,15.87
2018-05-23T12:08:34.408Z,14.93
2018-05-23T12:11:00.454Z,15.63
2018-05-23T12:13:26.500Z,14.70
2018-05-23T12:15:52.547Z,15.33
2018-05-23T12:18:18.621Z,16.27
2018-05-23T12:20:44.640Z,15.67
2018-05-23T12:23:10.705Z,15.83
2018-05-23T12:25:36.758Z,16.17
2018-05-23T12:28:03.790Z,14.63
2018-05-23T12:30:29.813Z,14.03
2018-05-23T12:32:55.866Z,13.73
2018-05-23T12:35:21.909Z,15.67
2018-05-23T12:37:47.940Z,14.73
2018-05-23T12:40:13.964Z,14.77
2018-05-23T12:42:40.026Z,14.53
2018-05-23T12:45:06.044Z,14.70
2018-05-23T12:47:32.152Z,14.10
2018-05-23T12:49:58.179Z,14.60
2018-05-23T12:52:24.210Z,16.07
2018-05-23T12:54:50.369Z,15.63
2018-05-23T12:57:16.446Z,15.80
2018-05-23T12:59:42.598Z,15.93
2018-05-23T13:02:08.646Z,15.67
2018-05-23T13:04:34.708Z,15.83
2018-05-23T13:07:00.745Z,16.90
2018-05-23T13:09:26.858Z,18.10
2018-05-23T13:11:52.893Z,17.60
2018-05-23T13:14:19.219Z,17.93
2018-05-23T13:16:45.334Z,16.97
2018-05-23T13:19:11.418Z,17.73
2018-05-23T13:21:37.545Z,15.70
2018-05-23T13:24:03.610Z,17.10
2018-05-23T13:26:29.724Z,16.83
2018-05-23T13:28:55.745Z,16.30
2018-05-23T13:31:21.826Z,15.73
2018-05-23T13:33:47.859Z,15.27
2018-05-23T13:36:13.875Z,16.70
2018-05-23T13:38:39.912Z,14.47
2018-05-23T13:41:05.933Z,15.07
2018-05-23T13:43:31.962Z,14.67
2018-05-23T13:45:57.990Z,13.47
2018-05-23T13:48:24.032Z,14.07
2018-05-23T13:50:50.156Z,15.50
2018-05-23T13:53:16.209Z,14.53
2018-05-23T13:55:42.267Z,13.43
2018-05-23T13:58:08.331Z,12.97
2018-05-23T14:00:34.350Z,12.87
2018-05-23T14:03:00.374Z,11.90
2018-05-23T14:05:26.426Z,13.33
2018-05-23T14:07:52.438Z,12.70
2018-05-23T14:10:18.519Z,12.47
2018-05-23T14:12:44.610Z,13.00
2018-05-23T14:15:10.702Z,14.20
2018-05-23T14:17:36.735Z,11.77
2018-05-23T14:20:02.964Z,14.70
2018-05-23T14:22:29.044Z,12.33
2018-05-23T14:24:56.054Z,12.20
2018-05-23T14:27:22.066Z,12.03
2018-05-23T14:29:48.117Z,11.97
2018-05-23T14:32:14.201Z,10.53
2018-05-23T14:34:40.225Z,10.80
2018-05-23T14:37:06.280Z,9.90
2018-05-23T14:39:32.367Z,11.80
2018-05-23T14:41:58.407Z,11.70
2018-05-23T14:44:24.494Z,12.17
2018-05-23T14:46:50.789Z,10.10
2018-05-23T14:49:16.831Z,9.37
2018-05-23T14:51:42.898Z,9.27
2018-05-23T14:54:09.080Z,7.73
2018-05-23T14:56:35.309Z,7.33
2018-05-23T14:59:01.470Z,6.30
2018-05-23T15:01:27.515Z,6.30
2018-05-23T15:03:53.589Z,6.80
2018-05-23T15:06:19.678Z,7.03
2018-05-23T15:08:45.779Z,7.10
2018-05-23T15:11:11.912Z,8.17
2018-05-23T15:13:37.957Z,8.07
2018-05-23T15:16:04.007Z,9.37
2018-05-23T15:18:30.056Z,9.33
2018-05-23T15:20:56.223Z,9.93
2018-05-23T15:23:22.308Z,11.17
2018-05-23T15:25:48.346Z,9.90
2018-05-23T15:28:14.397Z,7.43
2018-05-23T15:30:40.480Z,6.47
2018-05-23T15:33:06.549Z,6.83
2018-05-23T15:35:32.645Z,5.53
2018-05-23T15:37:58.679Z,5.00
2018-05-23T15:40:24.737Z,9.00
2018-05-23T15:42:51.036Z,9.83
2018-05-23T15:45:17.197Z,9.40
2018-05-23T15:47:43.276Z,10.63
2018-05-23T15:50:09.438Z,11.07
2018-05-23T15:52:35.499Z,12.60
2018-05-23T15:55:01.639Z,12.53
2018-05-23T15:57:27.688Z,14.13
2018-05-23T15:59:53.733Z,14.90
2018-05-23T16:02:19.754Z,14.27
2018-05-23T21:55:03.750Z,5.83
2018-05-23T21:57:29.801Z,5.93
2018-05-23T21:59:56.020Z,6.40
2018-05-23T22:02:22.083Z,6.33
2018-05-23T22:04:48.150Z,6.50
2018-05-23T22:07:14.184Z,6.17
2018-05-23T22:09:40.232Z,6.50
2018-05-23T22:12:06.494Z,6.30
2018-05-23T22:14:32.555Z,6.70
2018-05-23T22:16:58.613Z,6.63
2018-05-23T22:19:24.688Z,6.27
2018-05-23T22:21:50.713Z,6.93
2018-05-23T22:24:16.728Z,6.77
2018-05-23T22:26:42.776Z,6.60
2018-05-23T22:29:08.833Z,6.80
2018-05-23T22:31:34.882Z,6.47
2018-05-23T22:34:00.922Z,7.37
2018-05-23T22:36:26.969Z,6.77
2018-05-23T22:38:53.119Z,6.60
2018-05-23T22:41:19.177Z,6.83
2018-05-23T22:43:45.371Z,6.63
2018-05-23T22:46:11.802Z,6.10
2018-05-23T22:48:38.695Z,5.73
2018-05-23T22:51:04.731Z,6.30
2018-05-23T22:53:30.746Z,6.47
2018-05-23T22:55:56.785Z,5.57
2018-05-23T22:58:22.946Z,5.57
2018-05-23T23:00:48.976Z,4.70
2018-05-23T23:03:15.715Z,4.73
2018-05-23T23:05:41.896Z,5.00
2018-05-23T23:08:07.922Z,4.57
2018-05-23T23:10:33.960Z,4.50
2018-05-23T23:13:00.105Z,4.37
2018-05-23T23:15:26.129Z,3.90
2018-05-23T23:17:52.165Z,4.40
2018-05-23T23:20:18.206Z,4.30
2018-05-23T23:22:44.314Z,4.33
2018-05-23T23:25:10.404Z,4.17
2018-05-23T23:27:36.605Z,4.13
2018-05-23T23:30:02.737Z,4.30
2018-05-23T23:32:28.684Z,4.30
2018-05-23T23:34:54.755Z,4.00
2018-05-23T23:37:20.857Z,3.83
2018-05-23T23:39:47.050Z,3.90
2018-05-23T23:42:13.366Z,3.90
2018-05-23T23:44:39.746Z,3.87
2018-05-23T23:47:05.775Z,3.53
2018-05-23T23:49:31.805Z,3.83
2018-05-23T23:51:57.878Z,4.10
2018-05-23T23:54:24.131Z,4.10
2018-05-23T23:56:50.150Z,3.90
2018-05-23T23:59:16.204Z,4.00
